Terminal Aerodrome Forecast
Issued by NWS

Home | Current Version | Previous Version | Text Only | Print | Product List | Glossary On
Versions: 1 2 3 4 5 6 7 8 9 10 11 12 13 14 15 16 17 18 19 20 21
604
FTUS43 KMPX 241743
TAFRNH
TAF
KRNH 241743Z 2418/2518 10007KT P6SM BKN035
     FM242000 09008KT 1SM -SN OVC015
     FM242100 08010KT 1/2SM SN OVC008
     FM250000 13007KT 1SM -SN OVC003
     FM250500 27015G25KT P6SM BKN010
     FM251100 27015G24KT P6SM BKN030=

USA.gov is the U.S. government's official web portal to all federal, state and local government web resources and services.